Portada
METAR-TAF:

METAR-TAF

Aeropuertos :

Aeropuerto Internacional Lambert

San Luis, Misuri, Estados Unidos

latitud: 38-45-09N, longitud: 090-22-25W, altitud: 184 m

Observación

El informe se hizo hace 21 minutos, a las 00:51 UTC
Viento 9 kt del norte
Temperatura 3°C
Humedad 60%
Presión 1028 hPa
Visibilidad: 16.1 km
Escasas nubes a una altura de 25000 ft

METAR: KSTL 190051Z 35009KT 10SM FEW250 03/M04 A3037 RMK AO2 SLP293 T00281039

Hora: 19:12 (01:12 UTC)

Pronóstico

El informe se hizo hace 1 hora y 32 minutos, a las 23:40 UTC
Pronóstico válido del 19 a las 00 UTC al 20 a las 06 UTC
Viento 7 kt del norte
Visibilidad: 10 km
Nubes dispersas a una altura de 25000 ft
A partir de las 19 a las 1500 UTC
Viento 7 kt del norte-noreste
Visibilidad: 10 km
Nubes dispersas a una altura de 25000 ft

TAF: KSTL 182340Z 1900/2006 35007KT P6SM SCT250 FM191500 03007KT P6SM SCT250

Observaciones y pronósticos meteorológicos de más de 4000 aeropuertos (mensajes METAR y TAF).

Los puntos amarillos y rojos representan las estaciones disponibles.

Ponga el ratón en el punto deseado para ver el nombre de la estación.

Haga clic para ver las observaciones y los pronósticos meteorológicos.

Para cambiar el mapa : haga clic en los botones verdes con una cruz de color negro para hacer un zoom, en el botón verde con un guión para alejar o en las flechas verdes para mapas adyacentes.


METAR-TAF: